CST,Max TemperatureF,Mean TemperatureF,Min TemperatureF,Max Dew PointF,MeanDew PointF,Min DewpointF,Max Humidity, Mean Humidity, Min Humidity, Max Sea Level PressureIn, Mean Sea Level PressureIn, Min Sea Level PressureIn, Max VisibilityMiles, Mean VisibilityMiles, Min VisibilityMiles, Max Wind SpeedMPH, Mean Wind SpeedMPH, Max Gust SpeedMPH,PrecipitationIn, CloudCover, Events, WindDirDegrees
2013-12-1,51,38,24,34,30,25,100,75,50,30.12,30.06,29.96,10,8,3,12,7,14,0.00,1,,310
2013-12-2,46,39,32,40,36,29,100,85,70,29.95,29.81,29.72,6,4,2,14,9,17,0.01,6,Rain,88
2013-12-3,53,44,34,50,43,34,100,95,89,29.75,29.72,29.69,2,1,0,21,10,25,0.00,5,Fog,146
2013-12-4,61,51,41,57,50,40,100,90,80,29.79,29.67,29.55,10,4,0,26,13,32,0.01,7,Fog-Rain,174
2013-12-5,44,34,23,38,22,13,89,75,60,30.29,30.08,29.79,10,10,7,23,15,28,T,7,Rain,295
2013-12-6,23,17,11,13,11,6,76,69,62,30.58,30.40,30.27,10,10,10,18,12,22,0.00,5,,337
2013-12-7,25,17,9,9,5,3,80,60,40,30.72,30.64,30.56,10,10,10,15,9,18,0.00,0,,9
2013-12-8,28,23,18,27,21,10,100,84,67,30.50,30.15,30.00,10,4,1,21,13,24,0.02,7,Rain-Snow,128
2013-12-9,26,19,12,23,16,4,88,74,59,30.29,30.19,30.02,10,9,6,22,13,26,T,5,,271
2013-12-10,28,13,-2,15,7,-4,87,70,53,30.36,30.27,30.19,10,10,10,29,10,35,0.00,1,,248
2013-12-11,27,15,3,18,10,-5,88,78,67,30.65,30.45,30.31,10,10,9,24,10,26,T,3,,320
2013-12-12,27,12,-3,13,4,-7,86,68,50,30.64,30.47,30.29,10,10,10,21,11,24,0.00,0,,207
2013-12-13,39,25,11,31,23,9,100,77,54,30.26,30.13,30.04,10,5,1,18,9,24,0.19,5,Snow,156
2013-12-14,34,29,24,32,29,20,96,89,81,30.06,29.94,29.82,10,3,0,22,13,26,0.49,8,Fog-Snow,28
2013-12-15,24,19,13,19,15,9,91,81,71,30.15,30.10,30.03,10,6,2,25,12,30,0.02,7,Snow,286
2013-12-16,25,21,16,23,17,12,100,90,80,30.13,30.08,30.02,10,4,0,17,9,21,T,8,Fog-Snow,52
2013-12-17,29,21,12,27,20,8,92,83,73,30.22,30.12,30.05,10,4,1,18,12,21,T,5,Snow,262
2013-12-18,37,21,4,29,16,3,84,73,61,30.26,30.12,29.94,10,10,10,30,15,35,0.00,0,,198
2013-12-19,43,39,35,39,35,29,92,84,75,29.96,29.90,29.81,10,8,5,22,14,26,0.00,4,,184
2013-12-20,59,46,33,57,45,32,100,94,87,29.84,29.77,29.70,8,4,0,21,13,26,0.17,8,Fog-Rain,218
2013-12-21,37,35,32,36,32,30,100,95,89,29.84,29.73,29.53,10,4,1,23,10,26,0.94,8,Rain,3
2013-12-22,36,32,28,34,31,24,100,89,78,30.19,29.84,29.55,10,7,2,24,14,30,0.02,8,Rain-Snow,276
2013-12-23,28,17,6,22,13,-2,85,77,68,30.55,30.41,30.21,10,9,7,22,16,26,T,5,Snow,284
2013-12-24,20,12,4,11,4,-3,80,71,61,30.64,30.55,30.41,10,10,10,21,9,24,0.00,2,,228
2013-12-25,32,26,20,28,22,11,85,74,62,30.41,30.26,30.19,10,9,5,22,14,28,T,8,Rain,220
2013-12-26,39,27,14,27,23,16,91,73,54,30.39,30.30,30.23,10,10,6,20,11,26,0.00,3,,224
2013-12-27,46,36,26,33,28,22,92,75,58,30.37,30.29,30.19,10,10,9,16,10,20,0.00,0,,212
2013-12-28,53,42,31,36,32,28,89,70,50,30.21,30.09,29.92,10,10,10,20,13,24,0.00,0,,194
2013-12-29,37,27,16,31,26,12,92,84,76,30.23,29.98,29.83,10,7,2,24,16,31,T,6,Rain-Snow,282
2013-12-30,20,13,6,11,6,1,84,73,61,30.38,30.29,30.21,10,9,6,17,7,21,T,6,Snow,290
2013-12-31,32,23,13,21,15,9,81,67,53,30.41,30.29,30.23,10,10,10,15,8,18,T,3,,254